sensor_id;sensor_type;location;lat;lon;timestamp;P1;durP1;ratioP1;P2;durP2;ratioP2
30010;SDS011;16851;53.564;8.112;2023-02-21T00:02:45;14.90;;;3.30;;
30010;SDS011;16851;53.564;8.112;2023-02-21T00:08:08;14.33;;;2.30;;
30010;SDS011;16851;53.564;8.112;2023-02-21T00:13:33;26.27;;;3.40;;
30010;SDS011;16851;53.564;8.112;2023-02-21T00:18:57;22.00;;;3.73;;
30010;SDS011;16851;53.564;8.112;2023-02-21T00:24:18;19.00;;;2.90;;
30010;SDS011;16851;53.564;8.112;2023-02-21T00:29:39;20.13;;;4.33;;
30010;SDS011;16851;53.564;8.112;2023-02-21T00:35:03;18.40;;;3.17;;
30010;SDS011;16851;53.564;8.112;2023-02-21T00:40:24;19.27;;;2.87;;
30010;SDS011;16851;53.564;8.112;2023-02-21T00:45:44;28.77;;;4.47;;
30010;SDS011;16851;53.564;8.112;2023-02-21T00:51:08;19.93;;;3.87;;
30010;SDS011;16851;53.564;8.112;2023-02-21T00:56:32;25.43;;;4.30;;
30010;SDS011;16851;53.564;8.112;2023-02-21T01:01:53;21.67;;;3.43;;
30010;SDS011;16851;53.564;8.112;2023-02-21T01:07:15;27.37;;;3.83;;
30010;SDS011;16851;53.564;8.112;2023-02-21T01:12:41;23.63;;;3.73;;
30010;SDS011;16851;53.564;8.112;2023-02-21T01:18:01;30.40;;;4.50;;
30010;SDS011;16851;53.564;8.112;2023-02-21T01:23:22;25.83;;;4.27;;
30010;SDS011;16851;53.564;8.112;2023-02-21T01:28:46;24.87;;;4.43;;
30010;SDS011;16851;53.564;8.112;2023-02-21T01:34:06;28.33;;;4.57;;
30010;SDS011;16851;53.564;8.112;2023-02-21T01:39:29;22.20;;;4.93;;
30010;SDS011;16851;53.564;8.112;2023-02-21T01:45:05;26.43;;;5.70;;
30010;SDS011;16851;53.564;8.112;2023-02-21T01:50:56;30.57;;;6.70;;
30010;SDS011;16851;53.564;8.112;2023-02-21T01:56:17;21.50;;;5.13;;
30010;SDS011;16851;53.564;8.112;2023-02-21T02:01:44;34.63;;;6.43;;
30010;SDS011;16851;53.564;8.112;2023-02-21T02:07:07;31.63;;;6.50;;
30010;SDS011;16851;53.564;8.112;2023-02-21T02:40:02;26.33;;;6.47;;
30010;SDS011;16851;53.564;8.112;2023-02-21T02:50:35;32.60;;;8.30;;
30010;SDS011;16851;53.564;8.112;2023-02-21T02:55:39;35.90;;;7.47;;
30010;SDS011;16851;53.564;8.112;2023-02-21T03:00:44;29.03;;;7.83;;
30010;SDS011;16851;53.564;8.112;2023-02-21T03:06:05;29.37;;;6.93;;
30010;SDS011;16851;53.564;8.112;2023-02-21T03:11:23;41.87;;;9.03;;
30010;SDS011;16851;53.564;8.112;2023-02-21T03:16:32;31.40;;;7.90;;
30010;SDS011;16851;53.564;8.112;2023-02-21T03:21:40;29.50;;;7.03;;
30010;SDS011;16851;53.564;8.112;2023-02-21T03:26:48;27.80;;;7.60;;
30010;SDS011;16851;53.564;8.112;2023-02-21T03:32:32;11.43;;;3.13;;
30010;SDS011;16851;53.564;8.112;2023-02-21T03:37:42;17.13;;;6.80;;
30010;SDS011;16851;53.564;8.112;2023-02-21T03:42:47;19.23;;;7.33;;
30010;SDS011;16851;53.564;8.112;2023-02-21T03:47:52;24.87;;;7.03;;
30010;SDS011;16851;53.564;8.112;2023-02-21T03:52:57;22.77;;;7.57;;
30010;SDS011;16851;53.564;8.112;2023-02-21T03:58:00;20.30;;;6.57;;
30010;SDS011;16851;53.564;8.112;2023-02-21T04:03:06;17.67;;;6.03;;
30010;SDS011;16851;53.564;8.112;2023-02-21T04:08:13;20.93;;;7.43;;
30010;SDS011;16851;53.564;8.112;2023-02-21T04:13:16;25.30;;;6.93;;
30010;SDS011;16851;53.564;8.112;2023-02-21T04:18:20;29.90;;;7.73;;
30010;SDS011;16851;53.564;8.112;2023-02-21T04:23:27;30.13;;;6.13;;
30010;SDS011;16851;53.564;8.112;2023-02-21T04:28:29;27.33;;;7.23;;
30010;SDS011;16851;53.564;8.112;2023-02-21T04:33:30;24.50;;;7.00;;
30010;SDS011;16851;53.564;8.112;2023-02-21T04:38:33;24.20;;;6.43;;
30010;SDS011;16851;53.564;8.112;2023-02-21T04:43:35;14.00;;;4.73;;
30010;SDS011;16851;53.564;8.112;2023-02-21T04:48:39;20.23;;;5.03;;
30010;SDS011;16851;53.564;8.112;2023-02-21T04:53:45;20.23;;;4.73;;
30010;SDS011;16851;53.564;8.112;2023-02-21T04:58:47;12.30;;;4.30;;
30010;SDS011;16851;53.564;8.112;2023-02-21T05:03:57;15.20;;;4.17;;
30010;SDS011;16851;53.564;8.112;2023-02-21T05:09:02;18.03;;;5.13;;
30010;SDS011;16851;53.564;8.112;2023-02-21T05:14:08;12.20;;;4.93;;
30010;SDS011;16851;53.564;8.112;2023-02-21T05:19:12;19.27;;;6.60;;
30010;SDS011;16851;53.564;8.112;2023-02-21T05:24:29;14.80;;;5.67;;
30010;SDS011;16851;53.564;8.112;2023-02-21T05:29:31;12.90;;;4.83;;
30010;SDS011;16851;53.564;8.112;2023-02-21T05:34:35;19.93;;;6.83;;
30010;SDS011;16851;53.564;8.112;2023-02-21T05:39:37;17.30;;;6.13;;
30010;SDS011;16851;53.564;8.112;2023-02-21T05:44:39;18.43;;;7.50;;
30010;SDS011;16851;53.564;8.112;2023-02-21T05:49:47;12.83;;;5.97;;
30010;SDS011;16851;53.564;8.112;2023-02-21T05:54:54;14.90;;;6.53;;
30010;SDS011;16851;53.564;8.112;2023-02-21T05:59:56;15.20;;;5.37;;
30010;SDS011;16851;53.564;8.112;2023-02-21T06:04:59;7.73;;;4.37;;
30010;SDS011;16851;53.564;8.112;2023-02-21T06:10:05;14.33;;;5.80;;
30010;SDS011;16851;53.564;8.112;2023-02-21T06:15:15;14.77;;;6.50;;
30010;SDS011;16851;53.564;8.112;2023-02-21T06:20:17;12.33;;;5.80;;
30010;SDS011;16851;53.564;8.112;2023-02-21T06:25:19;15.10;;;6.63;;
30010;SDS011;16851;53.564;8.112;2023-02-21T06:30:25;11.90;;;5.03;;
30010;SDS011;16851;53.564;8.112;2023-02-21T06:35:28;10.57;;;5.23;;
30010;SDS011;16851;53.564;8.112;2023-02-21T06:40:30;9.97;;;5.17;;
30010;SDS011;16851;53.564;8.112;2023-02-21T06:45:31;16.80;;;7.00;;
30010;SDS011;16851;53.564;8.112;2023-02-21T06:50:36;14.83;;;6.10;;
30010;SDS011;16851;53.564;8.112;2023-02-21T06:55:37;16.27;;;7.83;;
30010;SDS011;16851;53.564;8.112;2023-02-21T07:00:39;22.20;;;11.45;;
30010;SDS011;16851;53.564;8.112;2023-02-21T07:05:41;21.27;;;8.10;;
30010;SDS011;16851;53.564;8.112;2023-02-21T07:10:44;16.33;;;6.53;;
30010;SDS011;16851;53.564;8.112;2023-02-21T07:15:46;11.03;;;6.57;;
30010;SDS011;16851;53.564;8.112;2023-02-21T07:20:50;15.73;;;8.33;;
30010;SDS011;16851;53.564;8.112;2023-02-21T07:25:52;16.37;;;8.97;;
30010;SDS011;16851;53.564;8.112;2023-02-21T07:30:53;13.53;;;8.17;;
30010;SDS011;16851;53.564;8.112;2023-02-21T07:35:58;15.63;;;9.20;;
30010;SDS011;16851;53.564;8.112;2023-02-21T07:41:05;18.70;;;10.43;;
30010;SDS011;16851;53.564;8.112;2023-02-21T07:46:10;14.43;;;9.37;;
30010;SDS011;16851;53.564;8.112;2023-02-21T07:51:15;15.00;;;9.80;;
30010;SDS011;16851;53.564;8.112;2023-02-21T07:56:18;18.93;;;10.20;;
30010;SDS011;16851;53.564;8.112;2023-02-21T08:01:23;23.90;;;12.53;;
30010;SDS011;16851;53.564;8.112;2023-02-21T08:06:26;24.60;;;12.77;;
30010;SDS011;16851;53.564;8.112;2023-02-21T08:11:27;30.33;;;13.07;;
30010;SDS011;16851;53.564;8.112;2023-02-21T08:16:32;38.07;;;16.07;;
30010;SDS011;16851;53.564;8.112;2023-02-21T08:21:37;24.80;;;11.37;;
30010;SDS011;16851;53.564;8.112;2023-02-21T08:26:40;25.07;;;12.03;;
30010;SDS011;16851;53.564;8.112;2023-02-21T08:31:47;25.90;;;13.40;;
30010;SDS011;16851;53.564;8.112;2023-02-21T08:36:48;30.13;;;13.73;;
30010;SDS011;16851;53.564;8.112;2023-02-21T08:41:51;25.83;;;11.13;;
30010;SDS011;16851;53.564;8.112;2023-02-21T08:46:55;21.20;;;10.43;;
30010;SDS011;16851;53.564;8.112;2023-02-21T08:52:00;22.60;;;10.67;;
30010;SDS011;16851;53.564;8.112;2023-02-21T08:57:03;26.33;;;9.60;;
30010;SDS011;16851;53.564;8.112;2023-02-21T09:02:04;19.47;;;8.23;;
30010;SDS011;16851;53.564;8.112;2023-02-21T09:07:13;31.50;;;9.37;;
30010;SDS011;16851;53.564;8.112;2023-02-21T09:12:17;30.57;;;10.80;;
30010;SDS011;16851;53.564;8.112;2023-02-21T09:17:22;29.63;;;9.10;;
30010;SDS011;16851;53.564;8.112;2023-02-21T09:22:26;34.57;;;10.67;;
30010;SDS011;16851;53.564;8.112;2023-02-21T09:27:30;32.97;;;10.40;;
30010;SDS011;16851;53.564;8.112;2023-02-21T09:32:40;26.63;;;8.47;;
30010;SDS011;16851;53.564;8.112;2023-02-21T09:37:44;34.80;;;10.10;;
30010;SDS011;16851;53.564;8.112;2023-02-21T09:42:50;33.87;;;9.60;;
30010;SDS011;16851;53.564;8.112;2023-02-21T09:47:55;40.90;;;9.07;;
30010;SDS011;16851;53.564;8.112;2023-02-21T09:53:00;30.03;;;9.37;;
30010;SDS011;16851;53.564;8.112;2023-02-21T09:58:02;40.97;;;10.10;;
30010;SDS011;16851;53.564;8.112;2023-02-21T10:08:30;33.63;;;10.77;;
30010;SDS011;16851;53.564;8.112;2023-02-21T10:13:42;48.10;;;11.83;;
30010;SDS011;16851;53.564;8.112;2023-02-21T10:24:25;39.00;;;11.63;;
30010;SDS011;16851;53.564;8.112;2023-02-21T10:34:56;30.00;;;10.30;;
30010;SDS011;16851;53.564;8.112;2023-02-21T10:45:23;28.67;;;9.67;;
30010;SDS011;16851;53.564;8.112;2023-02-21T11:01:29;39.53;;;10.47;;
30010;SDS011;16851;53.564;8.112;2023-02-21T11:06:37;44.10;;;11.23;;
30010;SDS011;16851;53.564;8.112;2023-02-21T11:11:44;36.50;;;10.67;;
30010;SDS011;16851;53.564;8.112;2023-02-21T11:22:11;38.40;;;11.03;;
30010;SDS011;16851;53.564;8.112;2023-02-21T11:27:14;38.57;;;10.80;;
30010;SDS011;16851;53.564;8.112;2023-02-21T11:32:22;34.33;;;9.63;;
30010;SDS011;16851;53.564;8.112;2023-02-21T11:37:27;34.77;;;11.10;;
30010;SDS011;16851;53.564;8.112;2023-02-21T11:42:36;35.40;;;10.63;;
30010;SDS011;16851;53.564;8.112;2023-02-21T11:47:42;38.57;;;12.27;;
30010;SDS011;16851;53.564;8.112;2023-02-21T11:58:23;33.13;;;10.80;;
30010;SDS011;16851;53.564;8.112;2023-02-21T12:03:54;35.13;;;12.97;;
30010;SDS011;16851;53.564;8.112;2023-02-21T12:30:38;26.30;;;8.87;;
30010;SDS011;16851;53.564;8.112;2023-02-21T12:46:38;18.83;;;7.20;;
30010;SDS011;16851;53.564;8.112;2023-02-21T12:51:48;21.13;;;8.17;;
30010;SDS011;16851;53.564;8.112;2023-02-21T12:56:56;24.37;;;10.33;;
30010;SDS011;16851;53.564;8.112;2023-02-21T13:02:09;20.10;;;9.93;;
30010;SDS011;16851;53.564;8.112;2023-02-21T13:07:19;23.63;;;9.60;;
30010;SDS011;16851;53.564;8.112;2023-02-21T13:17:39;23.67;;;10.90;;
30010;SDS011;16851;53.564;8.112;2023-02-21T13:28:41;17.13;;;8.13;;
30010;SDS011;16851;53.564;8.112;2023-02-21T13:33:50;19.77;;;7.00;;
30010;SDS011;16851;53.564;8.112;2023-02-21T13:39:18;19.73;;;7.63;;
30010;SDS011;16851;53.564;8.112;2023-02-21T13:44:41;18.43;;;6.47;;
30010;SDS011;16851;53.564;8.112;2023-02-21T13:49:52;22.90;;;7.80;;
30010;SDS011;16851;53.564;8.112;2023-02-21T14:21:09;21.00;;;7.80;;
30010;SDS011;16851;53.564;8.112;2023-02-21T14:42:37;25.88;;;8.77;;
30010;SDS011;16851;53.564;8.112;2023-02-21T15:03:59;18.93;;;7.63;;
30010;SDS011;16851;53.564;8.112;2023-02-21T15:09:16;21.57;;;8.13;;
30010;SDS011;16851;53.564;8.112;2023-02-21T15:14:21;21.70;;;7.83;;
30010;SDS011;16851;53.564;8.112;2023-02-21T15:19:26;17.87;;;7.23;;
30010;SDS011;16851;53.564;8.112;2023-02-21T15:24:33;19.57;;;7.93;;
30010;SDS011;16851;53.564;8.112;2023-02-21T15:29:38;22.43;;;8.10;;
30010;SDS011;16851;53.564;8.112;2023-02-21T15:34:44;21.57;;;8.30;;
30010;SDS011;16851;53.564;8.112;2023-02-21T15:39:58;19.93;;;8.87;;
30010;SDS011;16851;53.564;8.112;2023-02-21T15:45:07;23.67;;;9.57;;
30010;SDS011;16851;53.564;8.112;2023-02-21T15:55:44;16.27;;;8.83;;
30010;SDS011;16851;53.564;8.112;2023-02-21T16:00:47;29.60;;;8.80;;
30010;SDS011;16851;53.564;8.112;2023-02-21T16:05:50;19.93;;;9.10;;
30010;SDS011;16851;53.564;8.112;2023-02-21T16:11:00;24.83;;;9.63;;
30010;SDS011;16851;53.564;8.112;2023-02-21T16:16:03;22.52;;;11.55;;
30010;SDS011;16851;53.564;8.112;2023-02-21T16:21:06;23.27;;;10.00;;
30010;SDS011;16851;53.564;8.112;2023-02-21T16:31:24;24.13;;;10.27;;
30010;SDS011;16851;53.564;8.112;2023-02-21T16:36:30;21.90;;;10.80;;
30010;SDS011;16851;53.564;8.112;2023-02-21T16:41:38;21.53;;;9.77;;
30010;SDS011;16851;53.564;8.112;2023-02-21T16:46:43;27.60;;;11.70;;
30010;SDS011;16851;53.564;8.112;2023-02-21T16:51:47;16.33;;;10.63;;
30010;SDS011;16851;53.564;8.112;2023-02-21T16:56:49;27.30;;;11.33;;
30010;SDS011;16851;53.564;8.112;2023-02-21T17:01:57;27.03;;;11.93;;
30010;SDS011;16851;53.564;8.112;2023-02-21T17:07:00;23.97;;;12.00;;
30010;SDS011;16851;53.564;8.112;2023-02-21T17:12:05;29.03;;;15.03;;
30010;SDS011;16851;53.564;8.112;2023-02-21T17:17:11;28.97;;;14.90;;
30010;SDS011;16851;53.564;8.112;2023-02-21T17:22:13;26.87;;;15.10;;
30010;SDS011;16851;53.564;8.112;2023-02-21T17:27:17;31.87;;;17.00;;
30010;SDS011;16851;53.564;8.112;2023-02-21T17:32:21;32.57;;;15.57;;
30010;SDS011;16851;53.564;8.112;2023-02-21T17:37:29;31.67;;;15.37;;
30010;SDS011;16851;53.564;8.112;2023-02-21T17:42:33;27.47;;;15.97;;
30010;SDS011;16851;53.564;8.112;2023-02-21T17:47:39;32.13;;;16.30;;
30010;SDS011;16851;53.564;8.112;2023-02-21T17:52:41;32.87;;;15.73;;
30010;SDS011;16851;53.564;8.112;2023-02-21T17:57:43;32.47;;;17.00;;
30010;SDS011;16851;53.564;8.112;2023-02-21T18:02:45;38.27;;;17.07;;
30010;SDS011;16851;53.564;8.112;2023-02-21T18:07:51;33.37;;;16.10;;
30010;SDS011;16851;53.564;8.112;2023-02-21T18:12:57;38.73;;;18.57;;
30010;SDS011;16851;53.564;8.112;2023-02-21T18:18:03;27.87;;;16.30;;
30010;SDS011;16851;53.564;8.112;2023-02-21T18:23:10;29.23;;;16.20;;
30010;SDS011;16851;53.564;8.112;2023-02-21T18:28:15;35.73;;;16.97;;
30010;SDS011;16851;53.564;8.112;2023-02-21T18:33:17;34.60;;;17.10;;
30010;SDS011;16851;53.564;8.112;2023-02-21T18:38:20;36.13;;;17.47;;
30010;SDS011;16851;53.564;8.112;2023-02-21T18:43:24;29.80;;;16.60;;
30010;SDS011;16851;53.564;8.112;2023-02-21T18:48:27;33.93;;;16.73;;
30010;SDS011;16851;53.564;8.112;2023-02-21T18:53:33;42.03;;;19.57;;
30010;SDS011;16851;53.564;8.112;2023-02-21T18:58:36;35.60;;;18.47;;
30010;SDS011;16851;53.564;8.112;2023-02-21T19:03:41;36.87;;;19.83;;
30010;SDS011;16851;53.564;8.112;2023-02-21T19:08:45;42.20;;;18.07;;
30010;SDS011;16851;53.564;8.112;2023-02-21T19:13:49;32.57;;;18.03;;
30010;SDS011;16851;53.564;8.112;2023-02-21T19:18:55;30.63;;;18.60;;
30010;SDS011;16851;53.564;8.112;2023-02-21T19:24:06;45.57;;;23.00;;
30010;SDS011;16851;53.564;8.112;2023-02-21T19:29:10;38.27;;;21.17;;
30010;SDS011;16851;53.564;8.112;2023-02-21T19:34:18;37.90;;;19.27;;
30010;SDS011;16851;53.564;8.112;2023-02-21T19:39:22;34.83;;;18.53;;
30010;SDS011;16851;53.564;8.112;2023-02-21T19:44:29;35.33;;;20.30;;
30010;SDS011;16851;53.564;8.112;2023-02-21T19:49:33;37.10;;;22.90;;
30010;SDS011;16851;53.564;8.112;2023-02-21T19:54:39;31.90;;;19.13;;
30010;SDS011;16851;53.564;8.112;2023-02-21T19:59:41;40.10;;;21.57;;
30010;SDS011;16851;53.564;8.112;2023-02-21T20:04:47;39.20;;;21.83;;
30010;SDS011;16851;53.564;8.112;2023-02-21T20:09:55;39.60;;;20.67;;
30010;SDS011;16851;53.564;8.112;2023-02-21T20:14:57;37.47;;;18.57;;
30010;SDS011;16851;53.564;8.112;2023-02-21T20:19:59;48.27;;;23.77;;
30010;SDS011;16851;53.564;8.112;2023-02-21T20:25:05;31.97;;;18.67;;
30010;SDS011;16851;53.564;8.112;2023-02-21T20:30:24;39.17;;;20.47;;
30010;SDS011;16851;53.564;8.112;2023-02-21T20:35:49;37.90;;;20.40;;
30010;SDS011;16851;53.564;8.112;2023-02-21T20:41:08;34.93;;;20.93;;
30010;SDS011;16851;53.564;8.112;2023-02-21T20:46:41;43.53;;;21.53;;
30010;SDS011;16851;53.564;8.112;2023-02-21T20:52:21;38.90;;;19.40;;
30010;SDS011;16851;53.564;8.112;2023-02-21T20:58:07;40.07;;;21.77;;
30010;SDS011;16851;53.564;8.112;2023-02-21T21:03:14;42.30;;;21.20;;
30010;SDS011;16851;53.564;8.112;2023-02-21T21:08:20;46.40;;;21.23;;
30010;SDS011;16851;53.564;8.112;2023-02-21T21:13:23;39.97;;;21.43;;
30010;SDS011;16851;53.564;8.112;2023-02-21T21:18:24;38.00;;;20.73;;
30010;SDS011;16851;53.564;8.112;2023-02-21T21:23:27;35.67;;;19.93;;
30010;SDS011;16851;53.564;8.112;2023-02-21T21:28:29;42.13;;;21.20;;
30010;SDS011;16851;53.564;8.112;2023-02-21T21:33:36;44.50;;;22.90;;
30010;SDS011;16851;53.564;8.112;2023-02-21T21:38:41;46.43;;;24.13;;
30010;SDS011;16851;53.564;8.112;2023-02-21T21:43:44;41.77;;;22.47;;
30010;SDS011;16851;53.564;8.112;2023-02-21T21:48:46;38.17;;;22.10;;
30010;SDS011;16851;53.564;8.112;2023-02-21T21:53:48;44.87;;;24.03;;
30010;SDS011;16851;53.564;8.112;2023-02-21T21:58:50;42.47;;;22.40;;
30010;SDS011;16851;53.564;8.112;2023-02-21T22:03:54;46.50;;;22.03;;
30010;SDS011;16851;53.564;8.112;2023-02-21T22:08:56;40.20;;;22.90;;
30010;SDS011;16851;53.564;8.112;2023-02-21T22:14:01;42.43;;;21.57;;
30010;SDS011;16851;53.564;8.112;2023-02-21T22:19:05;37.30;;;21.97;;
30010;SDS011;16851;53.564;8.112;2023-02-21T22:24:08;48.00;;;24.53;;
30010;SDS011;16851;53.564;8.112;2023-02-21T22:29:18;53.97;;;25.60;;
30010;SDS011;16851;53.564;8.112;2023-02-21T22:34:19;44.67;;;22.63;;
30010;SDS011;16851;53.564;8.112;2023-02-21T22:39:25;44.10;;;23.77;;
30010;SDS011;16851;53.564;8.112;2023-02-21T22:44:27;42.43;;;23.93;;
30010;SDS011;16851;53.564;8.112;2023-02-21T22:49:33;55.93;;;28.53;;
30010;SDS011;16851;53.564;8.112;2023-02-21T22:54:37;49.93;;;25.10;;
30010;SDS011;16851;53.564;8.112;2023-02-21T22:59:41;56.17;;;28.70;;
30010;SDS011;16851;53.564;8.112;2023-02-21T23:04:43;68.53;;;34.33;;
30010;SDS011;16851;53.564;8.112;2023-02-21T23:09:47;62.10;;;33.27;;
30010;SDS011;16851;53.564;8.112;2023-02-21T23:14:48;75.77;;;38.63;;
30010;SDS011;16851;53.564;8.112;2023-02-21T23:19:51;76.23;;;41.23;;
30010;SDS011;16851;53.564;8.112;2023-02-21T23:24:53;73.70;;;37.80;;
30010;SDS011;16851;53.564;8.112;2023-02-21T23:29:57;73.73;;;37.10;;
30010;SDS011;16851;53.564;8.112;2023-02-21T23:35:02;68.80;;;36.40;;
30010;SDS011;16851;53.564;8.112;2023-02-21T23:40:06;69.73;;;38.20;;
30010;SDS011;16851;53.564;8.112;2023-02-21T23:45:19;72.93;;;38.17;;
30010;SDS011;16851;53.564;8.112;2023-02-21T23:50:25;74.93;;;39.70;;
30010;SDS011;16851;53.564;8.112;2023-02-21T23:55:31;78.20;;;39.20;;
